sensor_id;sensor_type;location;lat;lon;timestamp;pressure;altitude;pressure_sealevel;temperature;humidity
34177;BME280;20450;49.074;9.158;2023-05-25T00:00:50;100218.41;;;12.57;57.92
34177;BME280;20450;49.074;9.158;2023-05-25T00:03:29;100216.31;;;12.59;58.22
34177;BME280;20450;49.074;9.158;2023-05-25T00:05:56;100217.56;;;12.56;58.39
34177;BME280;20450;49.074;9.158;2023-05-25T00:08:23;100215.69;;;12.57;58.56
34177;BME280;20450;49.074;9.158;2023-05-25T00:10:50;100214.63;;;12.58;58.44
34177;BME280;20450;49.074;9.158;2023-05-25T00:13:18;100218.63;;;12.55;58.16
34177;BME280;20450;49.074;9.158;2023-05-25T00:15:47;100213.34;;;12.67;58.76
34177;BME280;20450;49.074;9.158;2023-05-25T00:18:14;100210.66;;;12.67;58.18
34177;BME280;20450;49.074;9.158;2023-05-25T00:20:41;100212.50;;;12.66;57.89
34177;BME280;20450;49.074;9.158;2023-05-25T00:23:08;100200.28;;;12.57;57.99
34177;BME280;20450;49.074;9.158;2023-05-25T00:25:35;100203.91;;;12.32;57.86
34177;BME280;20450;49.074;9.158;2023-05-25T00:28:03;100205.50;;;12.46;58.28
34177;BME280;20450;49.074;9.158;2023-05-25T00:30:30;100208.63;;;12.49;58.99
34177;BME280;20450;49.074;9.158;2023-05-25T00:32:59;100207.78;;;12.49;57.89
34177;BME280;20450;49.074;9.158;2023-05-25T00:35:26;100213.03;;;12.44;58.20
34177;BME280;20450;49.074;9.158;2023-05-25T00:37:53;100212.59;;;12.47;57.97
34177;BME280;20450;49.074;9.158;2023-05-25T00:40:21;100209.13;;;12.14;58.30
34177;BME280;20450;49.074;9.158;2023-05-25T00:42:48;100214.56;;;12.14;58.47
34177;BME280;20450;49.074;9.158;2023-05-25T00:45:16;100222.00;;;12.25;59.14
34177;BME280;20450;49.074;9.158;2023-05-25T00:47:43;100209.53;;;12.30;59.06
34177;BME280;20450;49.074;9.158;2023-05-25T00:50:14;100206.56;;;12.38;59.13
34177;BME280;20450;49.074;9.158;2023-05-25T00:52:43;100208.25;;;12.39;58.61
34177;BME280;20450;49.074;9.158;2023-05-25T00:55:10;100207.63;;;12.44;58.67
34177;BME280;20450;49.074;9.158;2023-05-25T00:57:48;100211.78;;;12.46;58.72
34177;BME280;20450;49.074;9.158;2023-05-25T01:00:20;100209.06;;;12.46;58.95
34177;BME280;20450;49.074;9.158;2023-05-25T01:02:51;100203.25;;;12.30;58.83
34177;BME280;20450;49.074;9.158;2023-05-25T01:05:23;100210.75;;;12.41;58.77
34177;BME280;20450;49.074;9.158;2023-05-25T01:07:52;100207.00;;;12.35;58.86
34177;BME280;20450;49.074;9.158;2023-05-25T01:10:23;100205.75;;;12.38;59.50
34177;BME280;20450;49.074;9.158;2023-05-25T01:12:54;100212.81;;;12.39;59.88
34177;BME280;20450;49.074;9.158;2023-05-25T01:15:25;100210.75;;;12.41;59.67
34177;BME280;20450;49.074;9.158;2023-05-25T01:17:53;100210.75;;;12.41;59.10
34177;BME280;20450;49.074;9.158;2023-05-25T01:20:23;100213.88;;;12.38;59.15
34177;BME280;20450;49.074;9.158;2023-05-25T01:22:56;100204.91;;;12.37;59.79
34177;BME280;20450;49.074;9.158;2023-05-25T01:25:31;100204.06;;;12.37;59.61
34177;BME280;20450;49.074;9.158;2023-05-25T01:28:05;100205.75;;;12.38;59.57
34177;BME280;20450;49.074;9.158;2023-05-25T01:30:36;100205.56;;;12.33;59.70
34177;BME280;20450;49.074;9.158;2023-05-25T01:33:06;100201.41;;;12.24;59.92
34177;BME280;20450;49.074;9.158;2023-05-25T01:35:38;100196.19;;;12.16;60.31
34177;BME280;20450;49.074;9.158;2023-05-25T01:38:09;100198.94;;;12.09;60.33
34177;BME280;20450;49.074;9.158;2023-05-25T01:40:38;100195.00;;;12.05;60.83
34177;BME280;20450;49.074;9.158;2023-05-25T01:43:05;100209.16;;;12.01;61.10
34177;BME280;20450;49.074;9.158;2023-05-25T01:45:33;100205.81;;;11.99;60.78
34177;BME280;20450;49.074;9.158;2023-05-25T01:48:08;100207.47;;;12.00;61.06
34177;BME280;20450;49.074;9.158;2023-05-25T01:50:53;100201.84;;;12.01;60.86
34177;BME280;20450;49.074;9.158;2023-05-25T01:53:29;100203.53;;;12.02;61.26
34177;BME280;20450;49.074;9.158;2023-05-25T01:56:05;100201.69;;;11.96;62.00
34177;BME280;20450;49.074;9.158;2023-05-25T01:58:37;100202.06;;;12.00;61.86
34177;BME280;20450;49.074;9.158;2023-05-25T02:01:07;100197.91;;;11.97;61.35
34177;BME280;20450;49.074;9.158;2023-05-25T02:03:37;100197.50;;;11.93;61.39
34177;BME280;20450;49.074;9.158;2023-05-25T02:06:06;100199.59;;;11.92;61.46
34177;BME280;20450;49.074;9.158;2023-05-25T02:08:35;100192.91;;;11.87;61.96
34177;BME280;20450;49.074;9.158;2023-05-25T02:11:02;100189.59;;;11.72;61.55
34177;BME280;20450;49.074;9.158;2023-05-25T02:13:29;100193.78;;;11.68;62.47
34177;BME280;20450;49.074;9.158;2023-05-25T02:15:57;100192.53;;;11.64;62.88
34177;BME280;20450;49.074;9.158;2023-05-25T02:18:24;100181.69;;;11.51;63.07
34177;BME280;20450;49.074;9.158;2023-05-25T02:20:53;100190.88;;;11.63;62.56
34177;BME280;20450;49.074;9.158;2023-05-25T02:23:20;100196.28;;;11.63;62.88
34177;BME280;20450;49.074;9.158;2023-05-25T02:25:49;100186.47;;;11.56;63.57
34177;BME280;20450;49.074;9.158;2023-05-25T02:28:16;100188.97;;;11.64;63.75
34177;BME280;20450;49.074;9.158;2023-05-25T02:30:43;100187.75;;;11.66;63.58
34177;BME280;20450;49.074;9.158;2023-05-25T02:33:11;100184.81;;;11.68;63.00
34177;BME280;20450;49.074;9.158;2023-05-25T02:35:38;100187.31;;;11.63;63.94
34177;BME280;20450;49.074;9.158;2023-05-25T02:38:06;100176.69;;;11.61;63.80
34177;BME280;20450;49.074;9.158;2023-05-25T02:40:34;100183.78;;;11.62;63.89
34177;BME280;20450;49.074;9.158;2023-05-25T02:43:02;100190.03;;;11.63;64.12
34177;BME280;20450;49.074;9.158;2023-05-25T02:45:29;100194.16;;;11.59;63.40
34177;BME280;20450;49.074;9.158;2023-05-25T02:47:58;100189.78;;;11.58;63.74
34177;BME280;20450;49.074;9.158;2023-05-25T02:50:32;100192.28;;;11.59;63.33
34177;BME280;20450;49.074;9.158;2023-05-25T02:53:03;100187.06;;;11.58;63.37
34177;BME280;20450;49.074;9.158;2023-05-25T02:55:30;100190.19;;;11.55;63.78
34177;BME280;20450;49.074;9.158;2023-05-25T02:57:58;100190.41;;;11.47;64.33
34177;BME280;20450;49.074;9.158;2023-05-25T03:00:48;100192.06;;;11.41;63.90
34177;BME280;20450;49.074;9.158;2023-05-25T03:03:18;100197.47;;;11.35;64.56
34177;BME280;20450;49.074;9.158;2023-05-25T03:05:47;100195.38;;;11.24;65.14
34177;BME280;20450;49.074;9.158;2023-05-25T03:08:19;100207.41;;;11.15;65.48
34177;BME280;20450;49.074;9.158;2023-05-25T03:11:01;100205.72;;;11.07;65.04
34177;BME280;20450;49.074;9.158;2023-05-25T03:13:38;100198.00;;;10.91;65.17
34177;BME280;20450;49.074;9.158;2023-05-25T03:16:08;100209.66;;;10.92;65.88
34177;BME280;20450;49.074;9.158;2023-05-25T03:18:35;100208.41;;;10.94;66.27
34177;BME280;20450;49.074;9.158;2023-05-25T03:21:03;100212.56;;;10.90;66.97
34177;BME280;20450;49.074;9.158;2023-05-25T03:23:30;100214.81;;;10.87;66.56
34177;BME280;20450;49.074;9.158;2023-05-25T03:25:59;100217.53;;;10.87;66.24
34177;BME280;20450;49.074;9.158;2023-05-25T03:28:26;100221.25;;;10.79;67.42
34177;BME280;20450;49.074;9.158;2023-05-25T03:30:53;100221.34;;;10.58;68.01
34177;BME280;20450;49.074;9.158;2023-05-25T03:33:22;100220.75;;;10.63;67.61
34177;BME280;20450;49.074;9.158;2023-05-25T03:35:49;100219.53;;;10.72;67.78
34177;BME280;20450;49.074;9.158;2023-05-25T03:38:16;100224.50;;;10.62;67.99
34177;BME280;20450;49.074;9.158;2023-05-25T03:40:44;100233.44;;;10.62;68.08
34177;BME280;20450;49.074;9.158;2023-05-25T03:43:11;100228.84;;;10.56;67.18
34177;BME280;20450;49.074;9.158;2023-05-25T03:45:38;100231.75;;;10.61;67.70
34177;BME280;20450;49.074;9.158;2023-05-25T03:48:05;100233.25;;;10.70;67.21
34177;BME280;20450;49.074;9.158;2023-05-25T03:50:34;100234.09;;;10.77;66.72
34177;BME280;20450;49.074;9.158;2023-05-25T03:53:01;100233.53;;;10.88;66.43
34177;BME280;20450;49.074;9.158;2023-05-25T03:55:28;100236.91;;;11.03;65.64
34177;BME280;20450;49.074;9.158;2023-05-25T03:57:56;100243.19;;;11.10;66.08
34177;BME280;20450;49.074;9.158;2023-05-25T04:00:25;100238.19;;;11.20;64.71
34177;BME280;20450;49.074;9.158;2023-05-25T04:03:07;100240.31;;;11.31;65.44
34177;BME280;20450;49.074;9.158;2023-05-25T04:05:37;100240.75;;;11.41;64.24
34177;BME280;20450;49.074;9.158;2023-05-25T04:08:04;100245.59;;;11.59;64.15
34177;BME280;20450;49.074;9.158;2023-05-25T04:10:33;100250.59;;;11.81;63.58
34177;BME280;20450;49.074;9.158;2023-05-25T04:13:01;100244.78;;;11.98;62.69
34177;BME280;20450;49.074;9.158;2023-05-25T04:15:29;100243.72;;;12.12;61.92
34177;BME280;20450;49.074;9.158;2023-05-25T04:18:03;100243.91;;;12.23;61.97
34177;BME280;20450;49.074;9.158;2023-05-25T04:20:31;100239.66;;;12.60;60.84
34177;BME280;20450;49.074;9.158;2023-05-25T04:23:00;100246.91;;;12.72;59.62
34177;BME280;20450;49.074;9.158;2023-05-25T04:25:27;100248.09;;;12.96;59.06
34177;BME280;20450;49.074;9.158;2023-05-25T04:27:56;100242.00;;;13.07;58.51
34177;BME280;20450;49.074;9.158;2023-05-25T04:30:42;100251.22;;;13.37;58.13
34177;BME280;20450;49.074;9.158;2023-05-25T04:33:25;100247.72;;;13.61;56.44
34177;BME280;20450;49.074;9.158;2023-05-25T04:36:01;100248.53;;;13.61;56.63
34177;BME280;20450;49.074;9.158;2023-05-25T04:38:30;100244.91;;;13.74;56.19
34177;BME280;20450;49.074;9.158;2023-05-25T04:40:59;100249.78;;;14.15;55.38
34177;BME280;20450;49.074;9.158;2023-05-25T04:43:26;100254.97;;;14.41;53.88
34177;BME280;20450;49.074;9.158;2023-05-25T04:45:54;100247.81;;;14.64;52.56
34177;BME280;20450;49.074;9.158;2023-05-25T04:48:21;100247.53;;;14.72;52.96
34177;BME280;20450;49.074;9.158;2023-05-25T04:50:48;100247.28;;;14.56;52.85
34177;BME280;20450;49.074;9.158;2023-05-25T04:53:16;100265.78;;;15.01;52.35
34177;BME280;20450;49.074;9.158;2023-05-25T04:55:44;100268.66;;;15.06;51.03
34177;BME280;20450;49.074;9.158;2023-05-25T04:58:12;100256.13;;;15.05;51.53
34177;BME280;20450;49.074;9.158;2023-05-25T05:00:41;100263.66;;;15.39;50.67
34177;BME280;20450;49.074;9.158;2023-05-25T05:03:10;100265.63;;;15.62;50.69
34177;BME280;20450;49.074;9.158;2023-05-25T05:05:38;100267.25;;;16.04;49.46
34177;BME280;20450;49.074;9.158;2023-05-25T05:08:08;100269.91;;;15.69;48.22
34177;BME280;20450;49.074;9.158;2023-05-25T05:10:35;100273.28;;;15.95;49.60
34177;BME280;20450;49.074;9.158;2023-05-25T05:13:06;100273.81;;;16.38;47.70
34177;BME280;20450;49.074;9.158;2023-05-25T05:15:38;100279.75;;;16.58;47.71
34177;BME280;20450;49.074;9.158;2023-05-25T05:18:07;100271.44;;;16.64;46.87
34177;BME280;20450;49.074;9.158;2023-05-25T05:20:35;100274.28;;;16.23;47.84
34177;BME280;20450;49.074;9.158;2023-05-25T05:23:08;100271.66;;;16.74;46.67
34177;BME280;20450;49.074;9.158;2023-05-25T05:25:35;100292.28;;;17.33;45.68
34177;BME280;20450;49.074;9.158;2023-05-25T05:28:03;100289.84;;;17.08;45.58
34177;BME280;20450;49.074;9.158;2023-05-25T05:30:36;100293.88;;;16.66;45.36
34177;BME280;20450;49.074;9.158;2023-05-25T05:33:17;100304.38;;;16.97;46.95
34177;BME280;20450;49.074;9.158;2023-05-25T05:35:46;100309.31;;;17.80;45.22
34177;BME280;20450;49.074;9.158;2023-05-25T05:38:17;100318.06;;;17.65;45.38
34177;BME280;20450;49.074;9.158;2023-05-25T05:40:46;100307.13;;;18.10;43.12
34177;BME280;20450;49.074;9.158;2023-05-25T05:43:18;100307.06;;;18.71;42.19
34177;BME280;20450;49.074;9.158;2023-05-25T05:45:47;100309.16;;;19.45;41.27
34177;BME280;20450;49.074;9.158;2023-05-25T05:48:15;100306.44;;;19.23;40.96
34177;BME280;20450;49.074;9.158;2023-05-25T05:50:43;100317.97;;;19.47;40.76
34177;BME280;20450;49.074;9.158;2023-05-25T05:53:12;100318.31;;;19.51;40.04
34177;BME280;20450;49.074;9.158;2023-05-25T05:55:39;100324.41;;;19.58;40.34
34177;BME280;20450;49.074;9.158;2023-05-25T05:58:07;100326.97;;;19.42;41.33
34177;BME280;20450;49.074;9.158;2023-05-25T06:00:34;100316.47;;;18.58;42.67
34177;BME280;20450;49.074;9.158;2023-05-25T06:03:02;100314.44;;;19.08;40.86
34177;BME280;20450;49.074;9.158;2023-05-25T06:05:30;100311.25;;;19.16;40.39
34177;BME280;20450;49.074;9.158;2023-05-25T06:07:59;100319.47;;;19.16;41.89
34177;BME280;20450;49.074;9.158;2023-05-25T06:10:26;100323.16;;;18.34;42.84
34177;BME280;20450;49.074;9.158;2023-05-25T06:12:53;100324.88;;;18.73;42.60
34177;BME280;20450;49.074;9.158;2023-05-25T06:15:20;100329.63;;;19.37;40.86
34177;BME280;20450;49.074;9.158;2023-05-25T06:17:49;100324.66;;;19.83;39.80
34177;BME280;20450;49.074;9.158;2023-05-25T06:20:18;100319.41;;;20.66;38.07
34177;BME280;20450;49.074;9.158;2023-05-25T06:22:45;100320.72;;;20.27;38.33
34177;BME280;20450;49.074;9.158;2023-05-25T06:25:13;100328.56;;;20.13;39.50
34177;BME280;20450;49.074;9.158;2023-05-25T06:27:56;100331.06;;;20.83;38.42
34177;BME280;20450;49.074;9.158;2023-05-25T06:30:24;100342.56;;;21.21;37.52
34177;BME280;20450;49.074;9.158;2023-05-25T06:32:51;100333.94;;;21.60;36.21
34177;BME280;20450;49.074;9.158;2023-05-25T06:35:19;100341.41;;;21.74;36.44
34177;BME280;20450;49.074;9.158;2023-05-25T06:37:49;100341.53;;;22.39;35.60
34177;BME280;20450;49.074;9.158;2023-05-25T06:40:18;100340.44;;;22.85;34.65
34177;BME280;20450;49.074;9.158;2023-05-25T06:42:45;100341.53;;;22.69;34.64
34177;BME280;20450;49.074;9.158;2023-05-25T06:45:40;100338.81;;;22.59;34.45
34177;BME280;20450;49.074;9.158;2023-05-25T06:48:10;100339.31;;;22.26;34.30
34177;BME280;20450;49.074;9.158;2023-05-25T06:50:39;100342.59;;;20.85;37.26
34177;BME280;20450;49.074;9.158;2023-05-25T06:53:06;100340.72;;;21.37;37.68
34177;BME280;20450;49.074;9.158;2023-05-25T06:55:33;100340.16;;;18.53;41.26
34177;BME280;20450;49.074;9.158;2023-05-25T06:58:00;100346.69;;;19.88;41.12
34177;BME280;20450;49.074;9.158;2023-05-25T07:00:29;100342.28;;;18.84;43.09
34177;BME280;20450;49.074;9.158;2023-05-25T07:02:57;100342.88;;;18.36;42.63
34177;BME280;20450;49.074;9.158;2023-05-25T07:05:25;100332.88;;;19.34;42.17
34177;BME280;20450;49.074;9.158;2023-05-25T07:07:53;100334.69;;;20.57;39.10
34177;BME280;20450;49.074;9.158;2023-05-25T07:10:21;100332.72;;;20.16;40.35
34177;BME280;20450;49.074;9.158;2023-05-25T07:12:48;100333.50;;;20.43;38.63
34177;BME280;20450;49.074;9.158;2023-05-25T07:15:15;100318.81;;;20.64;39.47
34177;BME280;20450;49.074;9.158;2023-05-25T07:17:42;100326.00;;;19.54;41.98
34177;BME280;20450;49.074;9.158;2023-05-25T07:20:10;100319.72;;;19.15;41.86
34177;BME280;20450;49.074;9.158;2023-05-25T07:22:38;100325.34;;;19.68;42.11
34177;BME280;20450;49.074;9.158;2023-05-25T07:25:07;100323.41;;;19.25;43.06
34177;BME280;20450;49.074;9.158;2023-05-25T07:27:35;100329.31;;;18.41;43.22
34177;BME280;20450;49.074;9.158;2023-05-25T07:30:02;100330.97;;;19.35;43.13
34177;BME280;20450;49.074;9.158;2023-05-25T07:32:31;100328.91;;;19.69;42.50
34177;BME280;20450;49.074;9.158;2023-05-25T07:34:58;100323.72;;;18.69;43.53
34177;BME280;20450;49.074;9.158;2023-05-25T07:37:25;100323.94;;;19.01;43.54
34177;BME280;20450;49.074;9.158;2023-05-25T07:39:52;100323.28;;;19.54;43.30
34177;BME280;20450;49.074;9.158;2023-05-25T07:42:21;100318.47;;;19.92;42.66
34177;BME280;20450;49.074;9.158;2023-05-25T07:44:48;100323.78;;;20.30;41.82
34177;BME280;20450;49.074;9.158;2023-05-25T07:47:16;100319.34;;;20.61;39.93
34177;BME280;20450;49.074;9.158;2023-05-25T07:49:44;100323.16;;;20.55;41.32
34177;BME280;20450;49.074;9.158;2023-05-25T07:52:11;100315.97;;;20.85;40.04
34177;BME280;20450;49.074;9.158;2023-05-25T07:54:37;100326.44;;;19.94;41.49
34177;BME280;20450;49.074;9.158;2023-05-25T07:57:04;100323.88;;;17.97;46.67
34177;BME280;20450;49.074;9.158;2023-05-25T07:59:35;100323.66;;;18.31;46.07
34177;BME280;20450;49.074;9.158;2023-05-25T08:02:05;100323.53;;;19.30;44.14
34177;BME280;20450;49.074;9.158;2023-05-25T08:04:33;100311.69;;;20.00;42.78
34177;BME280;20450;49.074;9.158;2023-05-25T08:07:00;100319.94;;;20.31;42.24
34177;BME280;20450;49.074;9.158;2023-05-25T08:09:27;100314.59;;;20.46;41.56
34177;BME280;20450;49.074;9.158;2023-05-25T08:11:54;100326.88;;;20.39;41.85
34177;BME280;20450;49.074;9.158;2023-05-25T08:14:43;100317.84;;;20.80;41.40
34177;BME280;20450;49.074;9.158;2023-05-25T08:17:09;100314.41;;;19.46;44.13
34177;BME280;20450;49.074;9.158;2023-05-25T08:19:37;100322.94;;;20.25;42.29
34177;BME280;20450;49.074;9.158;2023-05-25T08:22:04;100330.84;;;20.53;41.35
34177;BME280;20450;49.074;9.158;2023-05-25T08:24:31;100321.91;;;19.56;43.33
34177;BME280;20450;49.074;9.158;2023-05-25T08:26:58;100308.03;;;20.16;42.62
34177;BME280;20450;49.074;9.158;2023-05-25T08:29:25;100317.06;;;20.89;41.45
34177;BME280;20450;49.074;9.158;2023-05-25T08:31:53;100316.03;;;21.52;40.57
34177;BME280;20450;49.074;9.158;2023-05-25T08:34:21;100313.91;;;21.69;41.02
34177;BME280;20450;49.074;9.158;2023-05-25T08:36:49;100313.38;;;21.77;39.77
34177;BME280;20450;49.074;9.158;2023-05-25T08:39:16;100320.84;;;21.92;40.09
34177;BME280;20450;49.074;9.158;2023-05-25T08:41:44;100321.13;;;21.95;39.96
34177;BME280;20450;49.074;9.158;2023-05-25T08:44:12;100321.13;;;21.95;39.05
34177;BME280;20450;49.074;9.158;2023-05-25T08:46:39;100325.28;;;22.18;39.40
34177;BME280;20450;49.074;9.158;2023-05-25T08:49:09;100327.75;;;22.29;39.68
34177;BME280;20450;49.074;9.158;2023-05-25T08:51:47;100322.53;;;22.48;38.49
34177;BME280;20450;49.074;9.158;2023-05-25T08:54:18;100321.44;;;22.34;39.46
34177;BME280;20450;49.074;9.158;2023-05-25T08:56:49;100326.63;;;21.95;39.83
34177;BME280;20450;49.074;9.158;2023-05-25T08:59:27;100329.97;;;22.27;38.84
34177;BME280;20450;49.074;9.158;2023-05-25T09:02:10;100331.06;;;22.31;38.50
34177;BME280;20450;49.074;9.158;2023-05-25T09:04:49;100325.78;;;21.85;39.80
34177;BME280;20450;49.074;9.158;2023-05-25T09:07:17;100330.50;;;22.14;39.64
34177;BME280;20450;49.074;9.158;2023-05-25T09:09:46;100314.00;;;22.44;40.00
34177;BME280;20450;49.074;9.158;2023-05-25T09:12:15;100314.00;;;22.09;40.99
34177;BME280;20450;49.074;9.158;2023-05-25T09:14:43;100316.72;;;21.94;39.54
34177;BME280;20450;49.074;9.158;2023-05-25T09:17:11;100316.97;;;20.74;41.24
34177;BME280;20450;49.074;9.158;2023-05-25T09:19:39;100321.22;;;19.44;44.87
34177;BME280;20450;49.074;9.158;2023-05-25T09:22:08;100327.88;;;19.26;44.48
34177;BME280;20450;49.074;9.158;2023-05-25T09:24:41;100317.91;;;19.42;44.54
34177;BME280;20450;49.074;9.158;2023-05-25T09:27:10;100315.81;;;20.29;42.78
34177;BME280;20450;49.074;9.158;2023-05-25T09:29:38;100312.22;;;20.96;42.80
34177;BME280;20450;49.074;9.158;2023-05-25T09:32:05;100324.22;;;20.17;43.81
34177;BME280;20450;49.074;9.158;2023-05-25T09:34:33;100318.59;;;21.12;42.02
34177;BME280;20450;49.074;9.158;2023-05-25T09:37:02;100315.09;;;21.21;41.84
34177;BME280;20450;49.074;9.158;2023-05-25T09:39:31;100316.66;;;21.69;40.67
34177;BME280;20450;49.074;9.158;2023-05-25T09:41:59;100316.03;;;21.52;41.63
34177;BME280;20450;49.074;9.158;2023-05-25T09:44:27;100313.41;;;21.82;40.85
34177;BME280;20450;49.074;9.158;2023-05-25T09:46:54;100315.06;;;22.08;39.99
34177;BME280;20450;49.074;9.158;2023-05-25T09:52:56;100314.09;;;21.43;41.17
34177;BME280;20450;49.074;9.158;2023-05-25T09:55:28;100329.22;;;21.50;41.42
34177;BME280;20450;49.074;9.158;2023-05-25T09:58:16;100330.75;;;21.21;41.48
34177;BME280;20450;49.074;9.158;2023-05-25T10:00:44;100327.09;;;21.72;40.11
34177;BME280;20450;49.074;9.158;2023-05-25T10:03:13;100336.53;;;21.91;39.91
34177;BME280;20450;49.074;9.158;2023-05-25T10:05:41;100323.97;;;20.19;43.33
34177;BME280;20450;49.074;9.158;2023-05-25T10:08:09;100334.69;;;20.20;43.65
34177;BME280;20450;49.074;9.158;2023-05-25T10:10:39;100322.19;;;20.08;43.41
34177;BME280;20450;49.074;9.158;2023-05-25T10:20:14;100315.84;;;20.70;44.58
34177;BME280;20450;49.074;9.158;2023-05-25T10:23:03;100317.44;;;20.98;41.72
34177;BME280;20450;49.074;9.158;2023-05-25T10:25:39;100323.25;;;20.70;43.30
34177;BME280;20450;49.074;9.158;2023-05-25T10:28:13;100327.84;;;19.70;44.57
34177;BME280;20450;49.074;9.158;2023-05-25T10:30:46;100315.16;;;19.64;44.72
34177;BME280;20450;49.074;9.158;2023-05-25T10:33:43;100311.19;;;20.34;44.23
34177;BME280;20450;49.074;9.158;2023-05-25T10:36:43;100306.91;;;21.37;42.49
34177;BME280;20450;49.074;9.158;2023-05-25T10:39:43;100304.09;;;21.26;42.33
34177;BME280;20450;49.074;9.158;2023-05-25T10:42:12;100312.66;;;21.30;41.29
34177;BME280;20450;49.074;9.158;2023-05-25T10:44:40;100308.50;;;22.19;40.19
34177;BME280;20450;49.074;9.158;2023-05-25T10:47:08;100293.56;;;22.90;38.01
34177;BME280;20450;49.074;9.158;2023-05-25T10:49:51;100306.59;;;21.23;40.77
34177;BME280;20450;49.074;9.158;2023-05-25T10:52:20;100303.81;;;20.76;42.46
34177;BME280;20450;49.074;9.158;2023-05-25T10:54:54;100297.75;;;22.08;40.58
34177;BME280;20450;49.074;9.158;2023-05-25T10:57:24;100302.13;;;22.94;38.35
34177;BME280;20450;49.074;9.158;2023-05-25T11:04:15;100307.81;;;23.17;36.74
34177;BME280;20450;49.074;9.158;2023-05-25T11:07:06;100290.78;;;23.00;38.57
34177;BME280;20450;49.074;9.158;2023-05-25T11:09:39;100307.69;;;24.06;36.36
34177;BME280;20450;49.074;9.158;2023-05-25T11:12:08;100304.00;;;24.83;35.49
34177;BME280;20450;49.074;9.158;2023-05-25T11:17:59;100290.78;;;25.27;33.73
34177;BME280;20450;49.074;9.158;2023-05-25T11:20:28;100297.06;;;25.56;33.79
34177;BME280;20450;49.074;9.158;2023-05-25T11:22:57;100302.75;;;25.83;33.12
34177;BME280;20450;49.074;9.158;2023-05-25T11:25:49;100305.28;;;26.35;32.57
34177;BME280;20450;49.074;9.158;2023-05-25T11:28:17;100299.56;;;24.82;34.69
34177;BME280;20450;49.074;9.158;2023-05-25T11:30:45;100315.19;;;23.42;37.50
34177;BME280;20450;49.074;9.158;2023-05-25T11:33:13;100311.50;;;22.03;38.88
34177;BME280;20450;49.074;9.158;2023-05-25T11:35:40;100298.75;;;23.12;38.62
34177;BME280;20450;49.074;9.158;2023-05-25T11:38:08;100315.94;;;22.84;38.39
34177;BME280;20450;49.074;9.158;2023-05-25T11:40:36;100300.22;;;21.84;40.16
34177;BME280;20450;49.074;9.158;2023-05-25T11:43:07;100308.63;;;21.58;41.18
34177;BME280;20450;49.074;9.158;2023-05-25T11:45:36;100310.19;;;20.87;42.03
34177;BME280;20450;49.074;9.158;2023-05-25T11:48:06;100317.44;;;21.70;40.78
34177;BME280;20450;49.074;9.158;2023-05-25T11:50:39;100305.22;;;22.27;39.78
34177;BME280;20450;49.074;9.158;2023-05-25T11:53:06;100309.28;;;21.80;39.96
34177;BME280;20450;49.074;9.158;2023-05-25T11:55:36;100303.78;;;21.80;42.19
34177;BME280;20450;49.074;9.158;2023-05-25T11:58:03;100296.53;;;23.19;39.37
34177;BME280;20450;49.074;9.158;2023-05-25T12:00:30;100296.44;;;23.98;36.81
34177;BME280;20450;49.074;9.158;2023-05-25T12:02:57;100285.47;;;24.55;37.02
34177;BME280;20450;49.074;9.158;2023-05-25T12:05:36;100281.75;;;24.36;36.28
34177;BME280;20450;49.074;9.158;2023-05-25T12:08:03;100286.66;;;24.44;36.29
34177;BME280;20450;49.074;9.158;2023-05-25T12:10:31;100285.25;;;24.80;35.82
34177;BME280;20450;49.074;9.158;2023-05-25T12:13:00;100286.69;;;24.39;35.89
34177;BME280;20450;49.074;9.158;2023-05-25T12:15:28;100279.56;;;24.33;36.33
34177;BME280;20450;49.074;9.158;2023-05-25T12:17:58;100291.34;;;22.97;38.02
34177;BME280;20450;49.074;9.158;2023-05-25T12:20:28;100290.38;;;21.21;42.76
34177;BME280;20450;49.074;9.158;2023-05-25T12:22:57;100290.97;;;21.38;42.19
34177;BME280;20450;49.074;9.158;2023-05-25T12:25:24;100282.31;;;21.77;41.17
34177;BME280;20450;49.074;9.158;2023-05-25T12:28:09;100284.63;;;21.33;42.18
34177;BME280;20450;49.074;9.158;2023-05-25T12:30:36;100276.25;;;21.85;41.94
34177;BME280;20450;49.074;9.158;2023-05-25T12:33:12;100265.56;;;22.28;41.17
34177;BME280;20450;49.074;9.158;2023-05-25T12:35:46;100286.75;;;22.48;40.22
34177;BME280;20450;49.074;9.158;2023-05-25T12:38:29;100275.34;;;21.49;41.25
34177;BME280;20450;49.074;9.158;2023-05-25T12:41:05;100275.91;;;21.61;41.79
34177;BME280;20450;49.074;9.158;2023-05-25T12:43:37;100273.72;;;21.68;41.46
34177;BME280;20450;49.074;9.158;2023-05-25T12:46:04;100270.97;;;21.68;41.90
34177;BME280;20450;49.074;9.158;2023-05-25T12:48:33;100281.81;;;22.05;41.57
34177;BME280;20450;49.074;9.158;2023-05-25T12:51:01;100272.16;;;22.32;41.08
34177;BME280;20450;49.074;9.158;2023-05-25T12:53:29;100268.31;;;22.33;41.53
34177;BME280;20450;49.074;9.158;2023-05-25T12:56:02;100274.34;;;22.60;41.50
34177;BME280;20450;49.074;9.158;2023-05-25T12:58:30;100274.38;;;22.50;40.23
34177;BME280;20450;49.074;9.158;2023-05-25T13:00:57;100265.00;;;22.56;40.34
34177;BME280;20450;49.074;9.158;2023-05-25T13:03:24;100278.22;;;22.09;41.35
34177;BME280;20450;49.074;9.158;2023-05-25T13:05:58;100284.63;;;21.33;42.10
34177;BME280;20450;49.074;9.158;2023-05-25T13:08:28;100276.13;;;21.45;42.02
34177;BME280;20450;49.074;9.158;2023-05-25T13:10:55;100267.75;;;21.81;42.95
34177;BME280;20450;49.074;9.158;2023-05-25T13:13:22;100272.16;;;21.92;41.10
34177;BME280;20450;49.074;9.158;2023-05-25T13:15:49;100282.75;;;21.49;41.60
34177;BME280;20450;49.074;9.158;2023-05-25T13:18:17;100267.69;;;21.71;41.44
34177;BME280;20450;49.074;9.158;2023-05-25T13:20:47;100261.16;;;21.97;41.70
34177;BME280;20450;49.074;9.158;2023-05-25T13:23:21;100259.25;;;22.23;41.27